Time;durP1;ratioP1;P1;durP2;ratioP2;P2;SDS_P1;SDS_P2;PMS_P1;PMS_P2;Temp;Humidity;BMP_temperature;BMP_pressure;BME280_temperature;BME280_humidity;BME280_pressure;Samples;Min_cycle;Max_cycle;Signal;HPM_P1;HPM_P2
2022/07/16 00:01:58;;;;;;;4.05;2.38;;;18.40;88.10;;;;;;4956780;28;92368;-71
2022/07/16 00:04:25;;;;;;;3.90;2.50;;;18.20;88.40;;;;;;4957040;28;92506;-71
2022/07/16 00:06:52;;;;;;;3.47;2.15;;;18.20;88.60;;;;;;4957115;28;93240;-71
2022/07/16 00:09:24;;;;;;;2.75;1.42;;;18.10;89.00;;;;;;4972108;28;92807;-71
2022/07/16 00:11:59;;;;;;;2.47;2.28;;;18.10;89.20;;;;;;4956257;28;92450;-71
2022/07/16 00:14:31;;;;;;;3.38;2.30;;;18.00;89.60;;;;;;4955813;28;95737;-70
2022/07/16 00:16:58;;;;;;;4.53;3.38;;;18.00;89.90;;;;;;4955243;28;95501;-71
2022/07/16 00:19:25;;;;;;;3.83;2.60;;;17.90;90.10;;;;;;4971980;28;92444;-71
2022/07/16 00:21:54;;;;;;;2.20;1.80;;;17.90;90.30;;;;;;4971832;28;93384;-70
2022/07/16 00:24:22;;;;;;;2.85;2.65;;;17.80;90.30;;;;;;4956598;28;93366;-70
2022/07/16 00:26:49;;;;;;;3.30;1.65;;;17.80;90.70;;;;;;4955421;28;93415;-70
2022/07/16 00:29:20;;;;;;;4.18;3.35;;;17.70;90.60;;;;;;4955671;28;92477;-70
2022/07/16 00:31:49;;;;;;;3.33;2.63;;;17.70;90.70;;;;;;4957306;28;91620;-70
2022/07/16 00:34:17;;;;;;;4.03;2.53;;;17.70;90.90;;;;;;4954847;28;95787;-70
2022/07/16 00:36:44;;;;;;;2.65;2.45;;;17.70;91.00;;;;;;4956169;28;107902;-70
2022/07/16 00:39:11;;;;;;;2.50;2.30;;;17.80;91.00;;;;;;4953808;28;94856;-71
2022/07/16 00:41:40;;;;;;;2.35;1.73;;;17.80;91.00;;;;;;4956598;28;92419;-71
2022/07/16 00:44:10;;;;;;;3.30;2.42;;;17.90;91.10;;;;;;4956189;28;93263;-71
2022/07/16 00:46:38;;;;;;;3.20;2.50;;;17.80;91.10;;;;;;4954993;28;93038;-71
2022/07/16 00:49:06;;;;;;;2.38;2.00;;;17.90;91.10;;;;;;4954860;28;92415;-70
2022/07/16 00:51:34;;;;;;;3.65;3.35;;;18.00;91.20;;;;;;4954914;28;92541;-70
2022/07/16 00:54:02;;;;;;;2.53;2.15;;;18.00;91.20;;;;;;4954734;28;95661;-71
2022/07/16 00:56:29;;;;;;;3.45;2.08;;;18.10;91.20;;;;;;4956636;28;92804;-70
2022/07/16 00:58:56;;;;;;;2.78;2.47;;;18.10;91.30;;;;;;4955985;28;92443;-71
2022/07/16 01:01:24;;;;;;;3.42;2.40;;;18.10;91.40;;;;;;4970577;28;92548;-71
2022/07/16 01:03:51;;;;;;;3.95;3.47;;;18.10;91.40;;;;;;4954987;28;95960;-71
2022/07/16 01:06:19;;;;;;;3.20;2.90;;;18.20;91.40;;;;;;4955696;28;95399;-71
2022/07/16 01:08:47;;;;;;;3.05;1.90;;;18.20;91.40;;;;;;4970548;28;100083;-70
2022/07/16 01:11:18;;;;;;;3.60;3.17;;;18.20;91.50;;;;;;4956042;28;92453;-70
2022/07/16 01:13:47;;;;;;;3.53;2.88;;;18.30;91.50;;;;;;4956067;28;93570;-70
2022/07/16 01:16:14;;;;;;;2.80;2.10;;;18.30;91.60;;;;;;4954189;28;95456;-70
2022/07/16 01:18:42;;;;;;;3.97;3.67;;;18.30;91.60;;;;;;4954469;28;92475;-70
2022/07/16 01:21:11;;;;;;;2.97;1.92;;;18.30;91.60;;;;;;4956056;28;91625;-70
2022/07/16 01:23:38;;;;;;;3.17;3.03;;;18.40;91.90;;;;;;4954565;28;93376;-70
2022/07/16 01:26:05;;;;;;;4.25;3.08;;;18.40;92.20;;;;;;4953955;28;95476;-70
2022/07/16 01:28:32;;;;;;;2.75;2.55;;;18.40;92.50;;;;;;4954662;28;94747;-70
2022/07/16 01:30:59;;;;;;;2.92;2.10;;;18.40;92.80;;;;;;4971024;28;92870;-70
2022/07/16 01:33:30;;;;;;;3.10;2.53;;;18.40;93.40;;;;;;4955508;28;93148;-70
2022/07/16 01:36:06;;;;;;;4.38;4.03;;;18.30;93.70;;;;;;4938189;28;95620;-70
2022/07/16 01:38:36;;;;;;;4.40;3.92;;;18.30;94.10;;;;;;4955962;28;92378;-70
2022/07/16 01:41:03;;;;;;;4.32;3.92;;;18.20;94.30;;;;;;4955582;28;92504;-70
2022/07/16 01:43:30;;;;;;;4.60;4.18;;;18.20;94.50;;;;;;4955374;28;93321;-70
2022/07/16 01:45:59;;;;;;;4.45;3.75;;;18.20;94.70;;;;;;4955514;28;108607;-70
2022/07/16 01:48:26;;;;;;;5.30;4.78;;;18.20;94.90;;;;;;4955362;28;92351;-70
2022/07/16 01:50:54;;;;;;;4.28;3.72;;;18.20;95.10;;;;;;4955876;28;92441;-70
2022/07/16 01:53:21;;;;;;;4.97;3.70;;;18.20;95.30;;;;;;4952913;28;98200;-70
2022/07/16 01:55:48;;;;;;;5.28;4.18;;;18.10;95.40;;;;;;4955233;28;95392;-70
2022/07/16 01:58:16;;;;;;;4.40;4.00;;;18.20;95.70;;;;;;4955432;28;92349;-70
2022/07/16 02:00:44;;;;;;;4.57;4.03;;;18.20;95.80;;;;;;4953805;28;92547;-70
2022/07/16 02:03:12;;;;;;;5.75;5.00;;;18.20;95.90;;;;;;4955179;28;93152;-70
2022/07/16 02:05:40;;;;;;;5.60;3.83;;;18.20;96.10;;;;;;4954077;28;95458;-70
2022/07/16 02:08:07;;;;;;;4.00;3.60;;;18.20;96.20;;;;;;4955376;28;92582;-70
2022/07/16 02:10:35;;;;;;;3.67;2.92;;;18.20;96.30;;;;;;4955749;28;91696;-70
2022/07/16 02:13:03;;;;;;;4.45;3.05;;;18.20;96.40;;;;;;4957195;28;97907;-70
2022/07/16 02:15:31;;;;;;;4.07;3.78;;;18.20;96.40;;;;;;4957238;28;92848;-70
2022/07/16 02:17:58;;;;;;;6.00;3.35;;;18.20;96.40;;;;;;4957719;28;94833;-70
2022/07/16 02:20:25;;;;;;;5.28;4.65;;;18.20;96.40;;;;;;4957277;28;92505;-70
2022/07/16 02:22:54;;;;;;;5.55;4.55;;;18.20;96.50;;;;;;4958377;28;93350;-70
2022/07/16 02:25:21;;;;;;;4.47;3.40;;;18.20;96.50;;;;;;4958185;28;97767;-70
2022/07/16 02:28:06;;;;;;;4.43;4.07;;;18.20;96.60;;;;;;4957171;28;92689;-70
2022/07/16 02:30:34;;;;;;;4.68;4.20;;;18.20;96.60;;;;;;4973618;28;92578;-70
2022/07/16 02:33:02;;;;;;;5.22;3.92;;;18.10;96.70;;;;;;4956984;28;94378;-70
2022/07/16 02:35:29;;;;;;;5.28;3.15;;;18.10;96.70;;;;;;4958311;28;92877;-70
2022/07/16 02:37:57;;;;;;;5.10;4.70;;;18.10;96.80;;;;;;4958378;28;92464;-70
2022/07/16 02:40:25;;;;;;;4.53;3.17;;;18.10;96.90;;;;;;4958161;28;92435;-70
2022/07/16 02:42:52;;;;;;;4.75;4.35;;;18.10;96.90;;;;;;4956974;28;94795;-70
2022/07/16 02:45:19;;;;;;;4.38;3.28;;;18.10;97.10;;;;;;4956647;28;97883;-70
2022/07/16 02:47:46;;;;;;;3.38;3.00;;;18.00;97.20;;;;;;4958421;28;92548;-70
2022/07/16 02:50:13;;;;;;;3.05;2.78;;;18.00;97.20;;;;;;4957516;28;99504;-69
2022/07/16 02:52:40;;;;;;;6.18;5.00;;;18.00;97.30;;;;;;4958055;28;93161;-70
2022/07/16 02:55:07;;;;;;;3.67;3.30;;;18.00;97.70;;;;;;4972949;28;93094;-70
2022/07/16 02:57:34;;;;;;;4.57;2.63;;;17.90;97.50;;;;;;4973064;28;92451;-70
2022/07/16 03:00:03;;;;;;;2.72;2.53;;;17.90;97.60;;;;;;4958330;28;91715;-70
2022/07/16 03:02:30;;;;;;;3.75;3.35;;;17.90;97.80;;;;;;4956679;28;94390;-70
2022/07/16 03:04:56;;;;;;;4.20;3.05;;;17.80;97.90;;;;;;4956488;28;94106;-70
2022/07/16 03:07:23;;;;;;;4.70;2.60;;;17.80;98.00;;;;;;4956833;28;94883;-70
2022/07/16 03:09:50;;;;;;;5.45;2.65;;;17.70;98.10;;;;;;4956725;28;92500;-70
2022/07/16 03:12:18;;;;;;;7.07;3.63;;;17.70;98.20;;;;;;4956487;28;93171;-70
2022/07/16 03:14:45;;;;;;;3.17;2.58;;;17.70;98.30;;;;;;4956454;28;92977;-69
2022/07/16 03:17:13;;;;;;;4.65;2.92;;;17.70;98.40;;;;;;4940602;28;92895;-70
2022/07/16 03:19:40;;;;;;;3.55;3.25;;;17.70;98.40;;;;;;4957888;28;92424;-70
2022/07/16 03:22:08;;;;;;;5.18;2.60;;;17.60;98.50;;;;;;4955801;28;95731;-70
2022/07/16 03:24:35;;;;;;;3.30;2.20;;;17.60;98.50;;;;;;4957810;28;93057;-70
2022/07/16 03:27:02;;;;;;;5.70;3.15;;;17.50;98.60;;;;;;4957425;28;94450;-70
2022/07/16 03:29:29;;;;;;;5.40;2.88;;;17.40;98.70;;;;;;4956245;28;92512;-70
2022/07/16 03:31:56;;;;;;;4.28;1.67;;;17.40;99.00;;;;;;4956153;28;95630;-70
2022/07/16 03:34:23;;;;;;;3.88;3.50;;;17.30;99.10;;;;;;4957021;28;95295;-70
2022/07/16 03:36:50;;;;;;;5.30;3.42;;;17.20;99.20;;;;;;4957702;28;92447;-69
2022/07/16 03:39:17;;;;;;;5.32;2.80;;;17.10;99.30;;;;;;4957530;28;92483;-70
2022/07/16 03:41:44;;;;;;;3.83;2.28;;;17.10;99.40;;;;;;4955356;28;95708;-69
2022/07/16 03:44:12;;;;;;;4.70;3.55;;;17.00;99.50;;;;;;4957100;28;93166;-69
2022/07/16 03:46:39;;;;;;;3.65;2.42;;;16.90;99.60;;;;;;4957479;28;92482;-70
2022/07/16 03:49:07;;;;;;;5.82;2.20;;;16.90;99.70;;;;;;4972717;28;91751;-70
2022/07/16 03:51:34;;;;;;;6.25;3.20;;;16.90;99.60;;;;;;4955539;28;93305;-70
2022/07/16 03:54:05;;;;;;;8.98;3.22;;;16.80;99.50;;;;;;4957303;28;92941;-70
2022/07/16 03:56:32;;;;;;;4.00;2.65;;;16.80;99.50;;;;;;4954867;28;94845;-70
2022/07/16 03:59:00;;;;;;;4.15;2.08;;;16.80;99.40;;;;;;4939603;28;92537;-70
2022/07/16 04:01:27;;;;;;;4.68;3.47;;;16.80;99.40;;;;;;4954682;28;95836;-70
2022/07/16 04:03:54;;;;;;;3.65;2.95;;;16.90;99.60;;;;;;4956857;28;93049;-70
2022/07/16 04:06:21;;;;;;;5.32;2.35;;;17.30;99.10;;;;;;4955890;28;92451;-70
2022/07/16 04:08:49;;;;;;;3.50;3.10;;;17.80;98.60;;;;;;4957173;28;92464;-70
2022/07/16 04:11:16;;;;;;;4.95;2.17;;;18.40;97.50;;;;;;4955141;28;95863;-70
2022/07/16 04:13:43;;;;;;;5.00;2.50;;;19.00;96.70;;;;;;4955531;28;95412;-70
2022/07/16 04:16:10;;;;;;;4.45;1.80;;;19.50;95.70;;;;;;4957162;28;92542;-70
2022/07/16 04:18:37;;;;;;;4.00;2.05;;;20.00;94.70;;;;;;4956947;28;92462;-70
2022/07/16 04:21:05;;;;;;;5.95;2.83;;;20.20;94.10;;;;;;4970066;28;95617;-70
2022/07/16 04:23:33;;;;;;;6.18;2.05;;;20.10;94.00;;;;;;4956397;28;95498;-70
2022/07/16 04:26:00;;;;;;;4.05;2.63;;;20.00;94.00;;;;;;4955695;28;92501;-70
2022/07/16 04:28:27;;;;;;;3.67;1.70;;;19.80;94.20;;;;;;4955297;28;92540;-70
2022/07/16 04:30:53;;;;;;;2.42;2.20;;;19.60;94.40;;;;;;4954808;28;95686;-70
2022/07/16 04:33:21;;;;;;;4.82;1.90;;;19.30;94.70;;;;;;4955936;28;93002;-70
2022/07/16 04:35:48;;;;;;;4.50;3.20;;;19.20;95.00;;;;;;4971522;28;92577;-70
2022/07/16 04:38:16;;;;;;;4.00;2.65;;;19.00;95.10;;;;;;4955784;28;91779;-70
2022/07/16 04:40:43;;;;;;;5.25;3.92;;;18.90;95.40;;;;;;4955758;28;93271;-70
2022/07/16 04:43:11;;;;;;;6.10;3.05;;;18.70;95.60;;;;;;4954463;28;113378;-70
2022/07/16 04:45:38;;;;;;;4.05;2.55;;;18.60;95.70;;;;;;4955438;28;94855;-70
2022/07/16 04:48:05;;;;;;;4.18;1.92;;;18.50;95.80;;;;;;4955379;28;93262;-70
2022/07/16 04:50:33;;;;;;;2.97;1.73;;;18.40;96.00;;;;;;4954595;28;93239;-70
2022/07/16 04:53:00;;;;;;;5.22;2.42;;;18.30;96.00;;;;;;4956205;28;93354;-70
2022/07/16 04:55:26;;;;;;;5.07;2.15;;;18.30;96.10;;;;;;4956440;28;92363;-70
2022/07/16 04:57:53;;;;;;;4.60;3.58;;;18.20;96.20;;;;;;4954850;28;92511;-70
2022/07/16 05:00:24;;;;;;;3.97;3.67;;;18.30;96.10;;;;;;4954450;28;92917;-70
2022/07/16 05:02:57;;;;;;;4.35;3.08;;;18.30;96.00;;;;;;4956568;28;93088;-70
2022/07/16 05:05:31;;;;;;;5.57;3.38;;;18.30;96.00;;;;;;4954822;28;92557;-70
2022/07/16 05:08:03;;;;;;;4.10;2.33;;;18.30;96.00;;;;;;4954987;28;92452;-70
2022/07/16 05:10:31;;;;;;;6.85;2.40;;;18.20;95.90;;;;;;4953276;28;97089;-70
2022/07/16 05:12:59;;;;;;;7.20;3.63;;;18.20;96.10;;;;;;4956048;28;95384;-70
2022/07/16 05:15:27;;;;;;;5.70;2.55;;;18.10;96.00;;;;;;4971153;28;92485;-70
2022/07/16 05:17:54;;;;;;;3.75;1.67;;;18.10;96.00;;;;;;4955691;28;92491;-70
2022/07/16 05:20:22;;;;;;;5.13;2.67;;;18.20;96.10;;;;;;4954556;28;93821;-70
2022/07/16 05:22:49;;;;;;;7.18;2.20;;;18.20;96.00;;;;;;4954107;28;105531;-70
2022/07/16 05:25:16;;;;;;;4.68;1.77;;;18.30;95.70;;;;;;4956201;28;92368;-70
2022/07/16 05:27:43;;;;;;;5.95;2.78;;;18.50;95.40;;;;;;4955770;28;91791;-70
2022/07/16 05:30:11;;;;;;;4.82;2.13;;;18.50;95.30;;;;;;4955690;28;98038;-70
2022/07/16 05:32:41;;;;;;;5.55;2.88;;;18.50;95.30;;;;;;4954333;28;92945;-70
2022/07/16 05:35:09;;;;;;;5.55;2.30;;;18.60;95.20;;;;;;4954632;28;95589;-70
2022/07/16 05:37:37;;;;;;;4.65;1.90;;;18.60;95.30;;;;;;4970317;28;92555;-70
2022/07/16 05:40:04;;;;;;;5.43;2.97;;;18.80;95.10;;;;;;4954238;28;100968;-70
2022/07/16 05:42:31;;;;;;;3.47;1.67;;;18.90;94.80;;;;;;4955594;28;92925;-70
2022/07/16 05:44:58;;;;;;;4.60;1.63;;;19.00;94.80;;;;;;4956591;28;92518;-70
2022/07/16 05:47:25;;;;;;;4.65;2.08;;;19.00;94.60;;;;;;4974050;28;92894;-70
2022/07/16 05:49:52;;;;;;;4.25;2.22;;;19.00;94.50;;;;;;4959000;28;93298;-70
2022/07/16 05:52:19;;;;;;;5.13;1.90;;;19.00;94.50;;;;;;4958172;28;92194;-70
2022/07/16 05:54:46;;;;;;;5.45;2.88;;;19.10;94.50;;;;;;4959253;28;92492;-70
2022/07/16 05:57:13;;;;;;;6.63;1.88;;;19.20;94.30;;;;;;4958728;28;92514;-70
2022/07/16 05:59:40;;;;;;;5.15;2.38;;;19.20;93.90;;;;;;4956099;28;95742;-70
2022/07/16 06:02:07;;;;;;;5.38;2.13;;;19.20;93.80;;;;;;4957242;28;98036;-70
2022/07/16 06:04:34;;;;;;;7.47;3.25;;;19.20;93.20;;;;;;4957776;28;92465;-70
2022/07/16 06:07:01;;;;;;;5.22;1.30;;;19.30;93.00;;;;;;4957200;28;92396;-70
2022/07/16 06:09:28;;;;;;;4.28;1.60;;;19.40;92.60;;;;;;4957140;28;94561;-70
2022/07/16 06:11:55;;;;;;;4.30;1.38;;;19.40;91.60;;;;;;4973524;28;93089;-70
2022/07/16 06:14:22;;;;;;;5.32;1.15;;;19.40;91.30;;;;;;4973823;28;92602;-70
2022/07/16 06:16:49;;;;;;;8.38;1.52;;;19.40;90.90;;;;;;4958526;28;91809;-70
2022/07/16 06:19:16;;;;;;;3.47;1.88;;;19.40;90.70;;;;;;4956986;28;96087;-70
2022/07/16 06:21:43;;;;;;;4.45;1.48;;;19.40;91.00;;;;;;4958194;28;92926;-70
2022/07/16 06:24:10;;;;;;;8.75;2.58;;;19.40;90.50;;;;;;4956349;28;94917;-70
2022/07/16 06:26:37;;;;;;;6.15;2.55;;;19.40;90.10;;;;;;4958306;28;92890;-70
2022/07/16 06:29:04;;;;;;;4.65;2.55;;;19.40;90.50;;;;;;4940391;28;94234;-70
2022/07/16 06:31:31;;;;;;;5.60;1.70;;;19.40;90.80;;;;;;4956929;28;95877;-70
2022/07/16 06:33:58;;;;;;;7.28;2.85;;;19.40;90.80;;;;;;4940571;28;99706;-70
2022/07/16 06:36:25;;;;;;;2.83;1.20;;;19.40;90.20;;;;;;4973104;28;92627;-70
2022/07/16 06:38:52;;;;;;;6.90;1.92;;;19.40;89.80;;;;;;4958041;28;93238;-70
2022/07/16 06:41:19;;;;;;;4.25;1.42;;;19.40;89.40;;;;;;4973579;28;92912;-70
2022/07/16 06:43:46;;;;;;;7.30;3.17;;;19.50;87.80;;;;;;4957177;28;92732;-70
2022/07/16 06:46:13;;;;;;;5.28;1.60;;;19.60;86.90;;;;;;4956493;28;92695;-70
2022/07/16 06:48:40;;;;;;;4.00;1.65;;;19.80;86.00;;;;;;4971889;28;95735;-70
2022/07/16 06:51:07;;;;;;;4.38;1.50;;;20.10;85.90;;;;;;4972749;28;95311;-70
2022/07/16 06:53:38;;;;;;;4.45;2.65;;;20.20;84.10;;;;;;4958389;28;92844;-70
2022/07/16 06:56:08;;;;;;;5.20;1.63;;;20.10;81.90;;;;;;4957083;28;92588;-70
2022/07/16 06:58:36;;;;;;;3.45;1.00;;;20.00;82.00;;;;;;4957803;28;93264;-70
2022/07/16 07:01:03;;;;;;;5.43;1.58;;;19.80;81.90;;;;;;4955772;28;96229;-70
2022/07/16 07:03:30;;;;;;;6.32;2.22;;;19.70;82.60;;;;;;4958044;28;92470;-70
2022/07/16 07:05:57;;;;;;;5.57;1.35;;;19.70;83.10;;;;;;4957814;28;91714;-70
2022/07/16 07:08:24;;;;;;;3.65;1.42;;;19.70;81.30;;;;;;4956827;28;93616;-70
2022/07/16 07:10:51;;;;;;;3.20;2.20;;;19.60;81.50;;;;;;4957445;28;93007;-70
2022/07/16 07:13:18;;;;;;;5.57;1.77;;;19.60;82.60;;;;;;4957035;28;94916;-70
2022/07/16 07:15:45;;;;;;;3.00;0.95;;;19.60;81.30;;;;;;4956946;28;103947;-70
2022/07/16 07:18:12;;;;;;;4.10;2.42;;;19.60;81.60;;;;;;4956302;28;93366;-70
2022/07/16 07:20:39;;;;;;;5.63;1.23;;;19.50;81.40;;;;;;4957838;28;92989;-70
2022/07/16 07:23:06;;;;;;;5.00;2.17;;;19.50;81.30;;;;;;4972778;28;92455;-71
2022/07/16 07:25:33;;;;;;;5.15;1.20;;;19.40;80.20;;;;;;4955922;28;92445;-70
2022/07/16 07:28:04;;;;;;;4.28;0.80;;;19.30;80.30;;;;;;4955912;28;94560;-70
2022/07/16 07:30:31;;;;;;;3.40;1.10;;;19.30;80.60;;;;;;4957844;28;92906;-70
2022/07/16 07:33:00;;;;;;;3.08;2.10;;;19.40;80.10;;;;;;4956230;28;92440;-71
2022/07/16 07:35:27;;;;;;;3.38;2.70;;;19.40;79.50;;;;;;4971872;28;93207;-70
2022/07/16 07:37:54;;;;;;;6.35;2.78;;;19.50;78.40;;;;;;4970952;28;94819;-70
2022/07/16 07:40:21;;;;;;;3.38;1.30;;;19.70;77.60;;;;;;4956247;28;95454;-71
2022/07/16 07:42:48;;;;;;;4.22;1.40;;;19.80;77.50;;;;;;4957678;28;93194;-70
2022/07/16 07:45:15;;;;;;;3.20;1.08;;;19.90;75.50;;;;;;4955614;28;93157;-71
2022/07/16 07:47:42;;;;;;;4.65;1.80;;;20.10;75.70;;;;;;4955761;28;103255;-71
2022/07/16 07:50:09;;;;;;;6.53;1.70;;;20.30;74.80;;;;;;4972155;28;93038;-70
2022/07/16 07:52:36;;;;;;;5.30;1.33;;;20.50;74.40;;;;;;4955933;28;92513;-71
2022/07/16 07:55:03;;;;;;;3.33;2.90;;;20.70;73.30;;;;;;4955633;28;92256;-71
2022/07/16 07:57:30;;;;;;;4.88;2.17;;;20.90;73.70;;;;;;4972080;28;93217;-71
2022/07/16 07:59:57;;;;;;;3.17;1.83;;;21.10;73.80;;;;;;4956655;28;93154;-70
2022/07/16 08:02:25;;;;;;;3.17;1.35;;;21.20;72.70;;;;;;4955701;28;94865;-70
2022/07/16 08:04:52;;;;;;;2.28;1.20;;;21.20;72.60;;;;;;4956926;28;92469;-71
2022/07/16 08:07:19;;;;;;;2.78;2.00;;;21.10;72.00;;;;;;4956704;28;93352;-70
2022/07/16 08:09:46;;;;;;;2.72;1.48;;;21.00;71.50;;;;;;4955776;28;93376;-71
2022/07/16 08:12:13;;;;;;;4.28;1.35;;;21.40;70.80;;;;;;4972048;28;92600;-71
2022/07/16 08:14:40;;;;;;;1.63;1.08;;;22.10;68.20;;;;;;4955356;28;92811;-71
2022/07/16 08:17:19;;;;;;;5.35;1.50;;;23.00;66.30;;;;;;4971417;28;93223;-70
2022/07/16 08:19:46;;;;;;;2.78;2.58;;;24.20;61.20;;;;;;4955985;28;92938;-71
2022/07/16 08:22:13;;;;;;;2.72;1.95;;;25.20;60.50;;;;;;4956818;28;92430;-71
2022/07/16 08:27:26;;;;;;;4.10;1.85;;;27.30;55.80;;;;;;4954081;28;98196;-71
2022/07/16 08:29:53;;;;;;;3.42;1.52;;;28.10;52.00;;;;;;4971068;28;95421;-71
2022/07/16 08:32:19;;;;;;;3.90;0.90;;;29.10;49.30;;;;;;4971749;28;92569;-71
2022/07/16 08:34:46;;;;;;;3.55;1.77;;;29.80;48.40;;;;;;4971339;28;92550;-71
2022/07/16 08:37:13;;;;;;;3.85;1.70;;;30.10;47.50;;;;;;4955127;28;93324;-71
2022/07/16 08:39:44;;;;;;;2.25;1.05;;;30.00;46.60;;;;;;4971301;28;94895;-71
2022/07/16 08:42:12;;;;;;;4.72;1.63;;;29.50;46.10;;;;;;4956595;28;92786;-71
2022/07/16 08:44:40;;;;;;;2.63;1.05;;;28.90;46.80;;;;;;4955280;28;91765;-71
2022/07/16 08:47:12;;;;;;;2.25;1.38;;;28.50;47.30;;;;;;4956398;28;93172;-71
2022/07/16 08:49:42;;;;;;;5.65;1.30;;;28.20;47.80;;;;;;4971522;28;92944;-71
2022/07/16 08:52:10;;;;;;;6.13;1.38;;;27.80;48.50;;;;;;4954815;28;94862;-71
2022/07/16 08:54:38;;;;;;;3.00;1.80;;;27.40;49.20;;;;;;4956351;28;92457;-71
2022/07/16 08:57:05;;;;;;;3.20;1.60;;;27.10;50.00;;;;;;4955676;28;93134;-71
2022/07/16 08:59:32;;;;;;;3.17;1.00;;;26.70;50.50;;;;;;4956410;28;92924;-71
2022/07/16 09:01:59;;;;;;;3.05;2.28;;;26.40;51.30;;;;;;4970463;28;92473;-71
2022/07/16 09:04:31;;;;;;;5.43;1.90;;;26.30;52.40;;;;;;4970605;28;92368;-70
2022/07/16 09:06:58;;;;;;;5.18;1.80;;;26.30;53.10;;;;;;4971188;28;93153;-70
2022/07/16 09:09:25;;;;;;;3.85;1.50;;;26.10;53.30;;;;;;4956046;28;92961;-70
2022/07/16 09:11:52;;;;;;;2.90;1.50;;;25.90;54.00;;;;;;4955987;28;92494;-70
2022/07/16 09:14:19;;;;;;;2.38;1.10;;;25.80;55.20;;;;;;4954398;28;92611;-70
2022/07/16 09:16:49;;;;;;;3.28;1.77;;;25.60;55.70;;;;;;4952889;28;109579;-70
2022/07/16 09:19:21;;;;;;;4.10;1.60;;;25.30;56.40;;;;;;4955506;28;95335;-71
2022/07/16 09:22:08;;;;;;;6.97;1.30;;;24.90;56.80;;;;;;4954680;28;92556;-70
2022/07/16 09:24:52;;;;;;;3.35;1.00;;;24.70;57.60;;;;;;4956431;28;92527;-70
2022/07/16 09:27:24;;;;;;;4.50;2.25;;;24.30;59.50;;;;;;4955870;28;94067;-70
2022/07/16 09:29:58;;;;;;;8.40;2.25;;;24.00;60.00;;;;;;4955826;28;92809;-70
2022/07/16 09:32:36;;;;;;;4.43;1.30;;;23.90;61.30;;;;;;4955435;28;92403;-70
2022/07/16 09:35:13;;;;;;;5.63;1.20;;;24.00;61.10;;;;;;4956417;28;91718;-70
2022/07/16 09:37:48;;;;;;;3.20;2.28;;;24.20;60.80;;;;;;4955892;28;93287;-70
2022/07/16 09:40:39;;;;;;;2.80;1.23;;;24.30;60.80;;;;;;4955750;28;93182;-70
2022/07/16 09:43:12;;;;;;;4.45;1.35;;;24.40;59.50;;;;;;4954271;28;95313;-70
2022/07/16 09:45:40;;;;;;;;;;;24.20;59.90;;;;;;4938549;28;92514;-70
2022/07/16 09:48:25;;;;;;;7.03;1.65;;;24.10;60.30;;;;;;4955321;28;95620;-70
2022/07/16 09:50:53;;;;;;;4.82;1.52;;;24.20;60.10;;;;;;4954512;28;94102;-70
2022/07/16 09:53:25;;;;;;;5.38;2.50;;;24.20;59.00;;;;;;4969955;28;92618;-70
2022/07/16 09:56:04;;;;;;;4.43;2.00;;;24.30;58.30;;;;;;4954257;28;92513;-70
2022/07/16 09:58:32;;;;;;;3.83;1.35;;;24.30;57.70;;;;;;4953732;28;94410;-70
2022/07/16 10:01:00;;;;;;;4.43;1.45;;;24.20;58.00;;;;;;4953608;28;94252;-70
2022/07/16 10:03:28;;;;;;;4.00;1.20;;;24.00;58.20;;;;;;4953472;28;100164;-70
2022/07/16 10:05:56;;;;;;;4.30;1.42;;;23.90;58.40;;;;;;4955166;28;92426;-70
2022/07/16 10:08:24;;;;;;;3.95;1.45;;;23.90;58.70;;;;;;4936293;28;96750;-70
2022/07/16 10:10:51;;;;;;;6.10;1.58;;;24.10;58.50;;;;;;4953731;28;95519;-70
2022/07/16 10:13:25;;;;;;;6.22;1.20;;;24.20;59.00;;;;;;4955199;28;92470;-70
2022/07/16 10:15:53;;;;;;;4.95;2.45;;;24.00;58.50;;;;;;4955758;28;92531;-70
2022/07/16 10:18:37;;;;;;;4.68;1.98;;;23.90;59.10;;;;;;4954912;28;93493;-70
2022/07/16 10:21:07;;;;;;;3.78;2.08;;;23.80;59.30;;;;;;4954911;28;92895;-70
2022/07/16 10:23:36;;;;;;;2.78;1.20;;;23.60;58.30;;;;;;4955417;28;92345;-70
2022/07/16 10:26:06;;;;;;;5.30;1.35;;;23.30;57.30;;;;;;4955495;28;91704;-70
2022/07/16 10:28:54;;;;;;;4.95;1.83;;;23.20;57.70;;;;;;4953464;28;96629;-70
2022/07/16 10:31:31;;;;;;;4.53;3.08;;;23.10;58.10;;;;;;4954673;28;93265;-70
2022/07/16 10:34:13;;;;;;;2.85;1.73;;;23.10;58.70;;;;;;4956189;28;94869;-70
2022/07/16 10:36:52;;;;;;;3.20;1.02;;;23.20;57.60;;;;;;4956861;28;92349;-70
2022/07/16 10:39:21;;;;;;;5.72;2.35;;;23.30;56.90;;;;;;4956204;28;95903;-70
2022/07/16 10:41:53;;;;;;;3.83;1.55;;;23.30;57.10;;;;;;4957985;28;92965;-70
2022/07/16 10:44:23;;;;;;;6.25;2.35;;;23.30;57.30;;;;;;4956782;28;92493;-70
2022/07/16 10:47:02;;;;;;;3.47;1.10;;;23.50;58.20;;;;;;4940729;28;92507;-70
2022/07/16 10:49:30;;;;;;;4.55;1.60;;;23.50;57.60;;;;;;4958267;28;93230;-70
2022/07/16 10:52:06;;;;;;;6.05;1.30;;;23.40;57.20;;;;;;4973606;28;93082;-70
2022/07/16 10:54:35;;;;;;;3.63;1.30;;;23.50;56.50;;;;;;4958268;28;92443;-70
2022/07/16 10:57:10;;;;;;;3.95;1.85;;;23.50;56.60;;;;;;4972716;28;92457;-70
2022/07/16 10:59:43;;;;;;;3.58;1.45;;;23.60;57.00;;;;;;4956684;28;95875;-70
2022/07/16 11:02:12;;;;;;;6.60;1.42;;;23.90;56.00;;;;;;4957596;28;95444;-70
2022/07/16 11:04:47;;;;;;;4.80;1.98;;;24.20;55.70;;;;;;4940225;28;92479;-70
2022/07/16 11:07:17;;;;;;;3.72;1.95;;;24.40;55.90;;;;;;4956780;28;92502;-70
2022/07/16 11:09:49;;;;;;;4.68;2.67;;;24.20;55.70;;;;;;4957576;28;93201;-70
2022/07/16 11:12:22;;;;;;;3.67;1.98;;;24.20;56.40;;;;;;4957898;28;92977;-70
2022/07/16 11:14:51;;;;;;;4.95;1.30;;;24.10;56.60;;;;;;4958099;28;92347;-70
2022/07/16 11:17:21;;;;;;;4.38;1.20;;;24.10;55.70;;;;;;4958291;28;91736;-70
2022/07/16 11:19:55;;;;;;;3.35;1.98;;;24.20;55.50;;;;;;4956578;28;95888;-70
2022/07/16 11:22:29;;;;;;;;;;;24.50;56.70;;;;;;4958445;28;93064;-70
2022/07/16 11:24:59;;;;;;;3.38;1.33;;;24.50;55.20;;;;;;4958034;28;94750;-70
2022/07/16 11:27:31;;;;;;;3.30;2.05;;;24.40;54.90;;;;;;4956000;28;93004;-70
2022/07/16 11:30:01;;;;;;;5.33;1.50;;;24.40;55.40;;;;;;4957607;28;93212;-70
2022/07/16 11:32:28;;;;;;;3.45;1.70;;;24.50;55.20;;;;;;4957108;28;98094;-70
2022/07/16 11:34:56;;;;;;;2.83;1.15;;;24.50;55.60;;;;;;4956423;28;93144;-70
2022/07/16 11:37:22;;;;;;;2.95;2.22;;;24.70;54.60;;;;;;4956273;28;92462;-70
2022/07/16 11:39:58;;;;;;;3.33;2.20;;;24.80;55.00;;;;;;4972068;28;93123;-70
2022/07/16 11:42:25;;;;;;;4.20;2.25;;;24.90;54.10;;;;;;4956080;28;95821;-70
2022/07/16 11:44:52;;;;;;;5.20;1.58;;;24.70;55.90;;;;;;4957600;28;92464;-70
2022/07/16 11:47:19;;;;;;;3.10;1.20;;;24.70;57.00;;;;;;4957456;28;92454;-70
2022/07/16 11:49:49;;;;;;;3.25;1.80;;;24.70;55.20;;;;;;4955901;28;95531;-70
2022/07/16 11:52:24;;;;;;;4.72;1.48;;;24.60;55.80;;;;;;4957152;28;94099;-70
2022/07/16 11:54:56;;;;;;;5.88;1.63;;;24.80;56.90;;;;;;4957420;28;92476;-70
2022/07/16 11:57:23;;;;;;;5.90;1.48;;;24.90;56.60;;;;;;4972527;28;92685;-70
2022/07/16 11:59:55;;;;;;;5.50;2.50;;;24.80;56.40;;;;;;4956688;28;93257;-71
2022/07/16 12:02:25;;;;;;;3.45;1.83;;;24.80;56.70;;;;;;4957509;28;95591;-70
2022/07/16 12:04:55;;;;;;;4.18;2.40;;;24.90;56.90;;;;;;4964183;28;92695;-70
2022/07/16 12:07:25;;;;;;;9.27;2.35;;;25.10;57.60;;;;;;4957367;28;91726;-70
2022/07/16 12:09:56;;;;;;;3.53;2.13;;;25.10;56.40;;;;;;4956720;28;93305;-70
2022/07/16 12:12:29;;;;;;;3.08;1.45;;;25.00;56.30;;;;;;4972179;28;92993;-70
2022/07/16 12:15:14;;;;;;;5.25;1.33;;;24.90;55.20;;;;;;4955674;28;94934;-70
2022/07/16 12:17:45;;;;;;;5.57;1.55;;;24.80;54.80;;;;;;4971569;28;92501;-70
2022/07/16 12:20:22;;;;;;;4.70;2.08;;;24.60;55.70;;;;;;4956750;28;93223;-70
2022/07/16 12:23:02;;;;;;;5.45;2.70;;;24.60;56.20;;;;;;4956683;28;93131;-70
2022/07/16 12:25:32;;;;;;;5.93;1.60;;;24.80;56.10;;;;;;4955473;28;92504;-71
2022/07/16 12:27:59;;;;;;;7.28;2.35;;;24.90;56.50;;;;;;4956682;28;92549;-70
2022/07/16 12:30:51;;;;;;;4.57;2.10;;;25.00;56.10;;;;;;4956445;28;93286;-70
2022/07/16 12:33:27;;;;;;;6.00;1.38;;;25.00;55.40;;;;;;4971308;28;93123;-70
2022/07/16 12:36:07;;;;;;;3.03;1.10;;;24.90;55.80;;;;;;4956457;28;92499;-70
2022/07/16 12:38:52;;;;;;;4.25;1.63;;;24.90;55.30;;;;;;4971368;28;92566;-70
2022/07/16 12:41:23;;;;;;;2.97;1.70;;;24.80;55.10;;;;;;4953906;28;98356;-70
2022/07/16 12:43:55;;;;;;;3.95;1.77;;;24.70;54.60;;;;;;4955128;28;95367;-70
2022/07/16 12:46:25;;;;;;;3.13;1.40;;;24.80;55.30;;;;;;4938703;28;92479;-70
2022/07/16 12:48:57;;;;;;;3.58;1.40;;;24.80;55.40;;;;;;4956398;28;92363;-70
2022/07/16 12:51:27;;;;;;;2.85;1.30;;;24.90;55.40;;;;;;4956368;28;93238;-70
2022/07/16 12:53:56;;;;;;;4.38;1.15;;;24.80;54.80;;;;;;4956080;28;92668;-70
2022/07/16 12:59:10;;;;;;;2.17;1.40;;;24.80;54.30;;;;;;4955183;28;91894;-70
2022/07/16 13:01:37;;;;;;;4.65;1.10;;;24.70;54.40;;;;;;4955382;28;106171;-70
2022/07/16 13:04:05;;;;;;;4.13;2.58;;;24.50;53.70;;;;;;4956084;28;92876;-70